createdAt,value
2019-03-09T00:00:55.219Z,1007.36
2019-03-09T00:01:55.205Z,1007.35
2019-03-09T00:02:55.335Z,1007.32
2019-03-09T00:03:55.624Z,1007.32
2019-03-09T00:04:56.087Z,1007.29
2019-03-09T00:05:55.572Z,1007.28
2019-03-09T00:06:55.902Z,1007.26
2019-03-09T00:07:55.244Z,1007.24
2019-03-09T00:08:55.448Z,1007.22
2019-03-09T00:09:55.627Z,1007.18
2019-03-09T00:10:55.229Z,1007.20
2019-03-09T00:11:55.153Z,1007.18
2019-03-09T00:12:55.082Z,1007.16
2019-03-09T00:13:55.062Z,1007.07
2019-03-09T00:14:55.589Z,1007.11
2019-03-09T00:15:55.036Z,1007.07
2019-03-09T00:16:55.026Z,1007.03
2019-03-09T00:17:55.224Z,1007.02
2019-03-09T00:18:55.005Z,1006.98
2019-03-09T00:19:54.990Z,1006.98
2019-03-09T00:20:55.328Z,1006.94
2019-03-09T00:21:55.302Z,1006.98
2019-03-09T00:22:54.963Z,1006.92
2019-03-09T00:23:55.063Z,1006.88
2019-03-09T00:24:54.961Z,1006.95
2019-03-09T00:25:57.010Z,1006.94
2019-03-09T00:26:54.923Z,1006.91
2019-03-09T00:27:55.573Z,1006.88
2019-03-09T00:28:55.781Z,1006.85
2019-03-09T00:29:54.877Z,1006.84
2019-03-09T00:30:54.871Z,1006.82
2019-03-09T00:31:54.871Z,1006.83
2019-03-09T00:32:55.403Z,1006.75
2019-03-09T00:33:54.843Z,1006.72
2019-03-09T00:34:54.839Z,1006.72
2019-03-09T00:35:54.819Z,1006.67
2019-03-09T00:36:54.967Z,1006.70
2019-03-09T00:37:54.823Z,1006.71
2019-03-09T00:38:55.129Z,1006.74
2019-03-09T00:39:54.778Z,1006.76
2019-03-09T00:40:54.783Z,1006.74
2019-03-09T00:41:54.757Z,1006.78
2019-03-09T00:42:55.409Z,1006.68
2019-03-09T00:43:54.903Z,1006.72
2019-03-09T00:44:54.719Z,1006.70
2019-03-09T00:45:54.969Z,1006.63
2019-03-09T00:46:54.701Z,1006.71
2019-03-09T00:49:07.625Z,1006.58
2019-03-09T00:50:07.432Z,1006.56
2019-03-09T00:51:07.397Z,1006.60
2019-03-09T00:52:07.548Z,1006.54
2019-03-09T00:53:07.370Z,1006.59
2019-03-09T00:54:07.521Z,1006.57
2019-03-09T00:55:07.571Z,1006.53
2019-03-09T00:56:07.601Z,1006.50
2019-03-09T00:57:07.362Z,1006.54
2019-03-09T00:58:07.565Z,1006.55
2019-03-09T00:59:07.312Z,1006.54
2019-03-09T01:00:07.364Z,1006.53
2019-03-09T01:01:07.556Z,1006.51
2019-03-09T01:02:07.295Z,1006.52
2019-03-09T01:03:07.257Z,1006.53
2019-03-09T01:04:07.259Z,1006.50
2019-03-09T01:05:07.234Z,1006.51
2019-03-09T01:06:07.218Z,1006.47
2019-03-09T01:07:07.842Z,1006.45
2019-03-09T01:08:07.216Z,1006.44
2019-03-09T01:09:07.382Z,1006.49
2019-03-09T01:10:07.182Z,1006.43
2019-03-09T01:11:07.408Z,1006.43
2019-03-09T01:12:07.657Z,1006.42
2019-03-09T01:13:07.433Z,1006.45
2019-03-09T01:14:07.193Z,1006.41
2019-03-09T01:15:07.521Z,1006.40
2019-03-09T01:16:07.251Z,1006.38
2019-03-09T01:17:07.200Z,1006.36
2019-03-09T01:18:07.572Z,1006.33
2019-03-09T01:19:28.097Z,1006.27
2019-03-09T01:20:07.095Z,1006.30
2019-03-09T01:21:07.061Z,1006.20
2019-03-09T01:22:08.273Z,1006.19
2019-03-09T01:23:07.047Z,1006.16
2019-03-09T01:24:07.508Z,1006.17
2019-03-09T01:25:07.022Z,1006.12
2019-03-09T01:26:07.043Z,1006.12
2019-03-09T01:27:07.005Z,1006.06
2019-03-09T01:28:07.170Z,1006.00
2019-03-09T01:29:07.489Z,1005.91
2019-03-09T01:30:06.975Z,1005.96
2019-03-09T01:31:06.959Z,1005.99
2019-03-09T01:32:06.954Z,1005.96
2019-03-09T01:33:06.931Z,1005.95
2019-03-09T01:34:06.936Z,1005.97
2019-03-09T01:35:07.458Z,1005.86
2019-03-09T01:36:06.927Z,1005.89
2019-03-09T01:37:06.900Z,1005.92
2019-03-09T01:38:06.915Z,1005.86
2019-03-09T01:39:06.866Z,1005.84
2019-03-09T01:40:07.023Z,1005.81
2019-03-09T01:41:07.020Z,1005.79
2019-03-09T01:42:06.834Z,1005.75
2019-03-09T01:43:07.020Z,1005.72
2019-03-09T01:44:06.838Z,1005.66
2019-03-09T01:45:07.004Z,1005.58
2019-03-09T01:46:06.982Z,1005.54
2019-03-09T01:47:06.835Z,1005.48
2019-03-09T01:48:06.812Z,1005.48
2019-03-09T01:49:06.777Z,1005.46
2019-03-09T01:50:06.902Z,1005.47
2019-03-09T01:51:06.759Z,1005.42
2019-03-09T01:52:06.729Z,1005.44
2019-03-09T01:53:06.723Z,1005.36
2019-03-09T01:54:06.706Z,1005.38
2019-03-09T01:55:06.696Z,1005.37
2019-03-09T01:56:07.207Z,1005.39
2019-03-09T01:57:07.008Z,1005.40
2019-03-09T01:58:06.668Z,1005.35
2019-03-09T01:59:06.643Z,1005.32
2019-03-09T02:00:09.211Z,1005.37
2019-03-09T02:01:06.625Z,1005.33
2019-03-09T02:02:06.772Z,1005.27
2019-03-09T02:03:06.608Z,1005.28
2019-03-09T02:04:06.668Z,1005.24
2019-03-09T02:05:06.590Z,1005.18
2019-03-09T02:06:07.564Z,1005.23
2019-03-09T02:07:06.564Z,1005.21
2019-03-09T02:08:06.553Z,1005.26
2019-03-09T02:09:06.545Z,1005.22
2019-03-09T02:10:06.542Z,1005.21
2019-03-09T02:11:06.791Z,1005.18
2019-03-09T02:12:07.535Z,1005.14
2019-03-09T02:13:06.494Z,1005.13
2019-03-09T02:14:06.494Z,1005.04
2019-03-09T02:15:06.484Z,1005.02
2019-03-09T02:16:06.598Z,1005.00
2019-03-09T02:17:06.829Z,1005.00
2019-03-09T02:18:06.451Z,1005.01
2019-03-09T02:19:06.427Z,1004.97
2019-03-09T02:20:21.297Z,1004.95
2019-03-09T02:21:06.423Z,1004.94
2019-03-09T02:22:06.604Z,1004.91
2019-03-09T02:23:06.393Z,1004.94
2019-03-09T02:24:06.371Z,1004.91
2019-03-09T02:25:06.847Z,1004.90
2019-03-09T02:26:06.355Z,1004.92
2019-03-09T02:27:06.362Z,1004.83
2019-03-09T02:28:06.533Z,1004.85
2019-03-09T02:29:06.494Z,1004.87
2019-03-09T02:30:06.317Z,1004.82
2019-03-09T02:31:06.326Z,1004.82
2019-03-09T02:32:06.298Z,1004.78
2019-03-09T02:33:06.295Z,1004.75
2019-03-09T02:34:06.612Z,1004.75
2019-03-09T02:35:06.260Z,1004.73
2019-03-09T02:36:06.247Z,1004.73
2019-03-09T02:37:06.251Z,1004.76
2019-03-09T02:38:06.236Z,1004.68
2019-03-09T02:39:06.213Z,1004.65
2019-03-09T02:40:07.066Z,1004.66
2019-03-09T02:41:06.198Z,1004.63
2019-03-09T02:42:06.191Z,1004.62
2019-03-09T02:43:06.171Z,1004.58
2019-03-09T02:44:06.163Z,1004.57
2019-03-09T02:45:06.156Z,1004.51
2019-03-09T02:46:06.468Z,1004.48
2019-03-09T02:47:06.118Z,1004.48
2019-03-09T02:48:06.128Z,1004.58
2019-03-09T02:49:06.103Z,1004.65
2019-03-09T02:50:06.111Z,1004.56
2019-03-09T02:51:06.521Z,1004.50
2019-03-09T02:52:06.073Z,1004.48
2019-03-09T02:53:06.110Z,1004.34
2019-03-09T02:54:06.051Z,1004.41
2019-03-09T02:55:06.574Z,1004.35
2019-03-09T02:56:06.039Z,1004.33
2019-03-09T02:57:06.022Z,1004.28
2019-03-09T02:58:06.005Z,1004.29
2019-03-09T02:59:06.173Z,1004.22
2019-03-09T03:00:05.981Z,1004.14
2019-03-09T03:01:06.156Z,1004.07
2019-03-09T03:02:07.244Z,1004.08
2019-03-09T03:03:06.170Z,1004.00
2019-03-09T03:04:06.526Z,1004.05
2019-03-09T03:05:05.938Z,1004.02
2019-03-09T03:06:05.987Z,1004.02
2019-03-09T03:07:06.090Z,1003.97
2019-03-09T03:08:06.454Z,1004.02
2019-03-09T03:09:05.884Z,1004.01
2019-03-09T03:10:06.016Z,1004.02
2019-03-09T03:11:05.868Z,1003.99
2019-03-09T03:12:05.870Z,1003.97
2019-03-09T03:13:05.987Z,1003.95
2019-03-09T03:14:05.852Z,1003.91
2019-03-09T03:15:05.814Z,1003.88
2019-03-09T03:16:05.847Z,1003.93
2019-03-09T03:17:05.795Z,1003.80
2019-03-09T03:18:06.032Z,1003.79
2019-03-09T03:19:05.780Z,1003.78
2019-03-09T03:20:05.938Z,1003.73
2019-03-09T03:21:05.757Z,1003.67
2019-03-09T03:22:05.744Z,1003.65
2019-03-09T03:23:05.827Z,1003.59
2019-03-09T03:24:05.732Z,1003.61
2019-03-09T03:25:06.214Z,1003.52
2019-03-09T03:26:05.705Z,1003.49
2019-03-09T03:27:05.742Z,1003.46
2019-03-09T03:28:05.681Z,1003.47
2019-03-09T03:29:05.682Z,1003.46
2019-03-09T03:30:05.753Z,1003.37
2019-03-09T03:31:09.649Z,1003.36
2019-03-09T03:32:05.642Z,1003.31
2019-03-09T03:33:05.626Z,1003.29
2019-03-09T03:34:05.620Z,1003.23
2019-03-09T03:35:05.603Z,1003.26
2019-03-09T03:36:06.002Z,1003.27
2019-03-09T03:37:05.984Z,1003.24
2019-03-09T03:38:05.639Z,1003.23
2019-03-09T03:39:05.559Z,1003.13
2019-03-09T03:40:05.659Z,1003.14
2019-03-09T03:41:05.629Z,1003.09
2019-03-09T03:42:05.893Z,1003.12
2019-03-09T03:43:05.515Z,1003.07
2019-03-09T03:44:05.496Z,1003.04
2019-03-09T03:45:05.495Z,1003.01
2019-03-09T03:46:05.482Z,1003.02
2019-03-09T03:47:05.468Z,1002.98
2019-03-09T03:48:05.729Z,1003.00
2019-03-09T03:49:05.494Z,1002.96
2019-03-09T03:50:05.441Z,1002.96
2019-03-09T03:51:05.444Z,1002.83
2019-03-09T03:52:06.265Z,1002.89
2019-03-09T03:53:05.724Z,1002.83
2019-03-09T03:54:05.573Z,1002.80
2019-03-09T03:55:05.527Z,1002.76
2019-03-09T03:56:05.399Z,1002.78
2019-03-09T03:57:05.541Z,1002.81
2019-03-09T03:58:05.365Z,1002.79
2019-03-09T03:59:05.698Z,1002.80
2019-03-09T04:00:05.331Z,1002.75
2019-03-09T04:01:05.388Z,1002.74
2019-03-09T04:02:05.300Z,1002.71
2019-03-09T04:03:05.318Z,1002.76
2019-03-09T04:04:05.311Z,1002.58
2019-03-09T04:05:05.607Z,1002.62
2019-03-09T04:06:05.289Z,1002.59
2019-03-09T04:07:05.257Z,1002.52
2019-03-09T04:08:05.240Z,1002.44
2019-03-09T04:09:05.237Z,1002.42
2019-03-09T04:10:05.743Z,1002.43
2019-03-09T04:11:06.209Z,1002.43
2019-03-09T04:12:05.424Z,1002.43
2019-03-09T04:13:05.282Z,1002.35
2019-03-09T04:14:05.540Z,1002.38
2019-03-09T04:15:05.179Z,1002.37
2019-03-09T04:16:06.458Z,1002.36
2019-03-09T04:17:05.223Z,1002.35
2019-03-09T04:18:05.276Z,1002.38
2019-03-09T04:19:05.225Z,1002.23
2019-03-09T04:20:05.320Z,1002.23
2019-03-09T04:21:06.914Z,1002.19
2019-03-09T04:22:05.855Z,1002.17
2019-03-09T04:23:05.250Z,1002.12
2019-03-09T04:24:05.891Z,1002.07
2019-03-09T04:25:05.131Z,1002.06
2019-03-09T04:26:05.856Z,1002.11
2019-03-09T04:27:05.598Z,1002.06
2019-03-09T04:28:05.112Z,1002.01
2019-03-09T04:29:05.085Z,1001.98
2019-03-09T04:30:04.999Z,1001.97
2019-03-09T04:31:05.129Z,1001.96
2019-03-09T04:32:04.988Z,1001.98
2019-03-09T04:33:05.992Z,1001.96
2019-03-09T04:34:04.950Z,1001.87
2019-03-09T04:35:04.966Z,1001.90
2019-03-09T04:36:04.942Z,1001.89
2019-03-09T04:37:04.996Z,1001.85
2019-03-09T04:38:04.919Z,1001.97
2019-03-09T04:39:05.438Z,1001.80
2019-03-09T04:40:04.897Z,1001.79
2019-03-09T04:41:04.915Z,1001.81
2019-03-09T04:42:04.914Z,1001.74
2019-03-09T04:43:04.854Z,1001.71
2019-03-09T04:44:04.993Z,1001.68
2019-03-09T04:45:04.846Z,1001.60
2019-03-09T04:46:04.911Z,1001.63
2019-03-09T04:47:04.813Z,1001.59
2019-03-09T04:48:04.970Z,1001.58
2019-03-09T04:49:04.791Z,1001.55
2019-03-09T04:50:05.140Z,1001.44
2019-03-09T04:51:04.780Z,1001.38
2019-03-09T04:52:04.751Z,1001.34
2019-03-09T04:53:04.752Z,1001.34
2019-03-09T04:54:04.742Z,1001.27
2019-03-09T04:55:04.725Z,1001.20
2019-03-09T04:56:05.448Z,1001.27
2019-03-09T04:57:04.735Z,1001.21
2019-03-09T04:58:04.750Z,1001.18
2019-03-09T04:59:04.786Z,1001.21
2019-03-09T05:00:04.667Z,1001.15
2019-03-09T05:01:04.699Z,1001.16
2019-03-09T05:02:05.037Z,1001.14
2019-03-09T05:03:04.738Z,1001.09
2019-03-09T05:04:04.619Z,1001.13
2019-03-09T05:05:04.625Z,1001.10
2019-03-09T05:06:04.595Z,1001.02
2019-03-09T05:07:04.990Z,1001.01
2019-03-09T05:08:04.586Z,1000.97
2019-03-09T05:09:04.572Z,1000.93
2019-03-09T05:10:04.574Z,1000.91
2019-03-09T05:11:06.031Z,1000.89
2019-03-09T05:12:04.537Z,1000.84
2019-03-09T05:13:04.923Z,1000.85
2019-03-09T05:14:04.511Z,1000.77
2019-03-09T05:15:04.502Z,1000.75
2019-03-09T05:16:04.493Z,1000.69
2019-03-09T05:17:04.497Z,1000.66
2019-03-09T05:18:04.507Z,1000.64
2019-03-09T05:19:04.636Z,1000.70
2019-03-09T05:20:04.582Z,1000.63
2019-03-09T05:21:04.439Z,1000.66
2019-03-09T05:22:04.546Z,1000.72
2019-03-09T05:23:04.426Z,1000.59
2019-03-09T05:24:04.411Z,1000.55
2019-03-09T05:25:04.670Z,1000.59
2019-03-09T05:26:04.619Z,1000.50
2019-03-09T05:27:04.380Z,1000.56
2019-03-09T05:28:04.408Z,1000.45
2019-03-09T05:29:04.466Z,1000.49
2019-03-09T05:30:05.660Z,1000.37
2019-03-09T05:31:05.369Z,1000.38
2019-03-09T05:32:04.700Z,1000.38
2019-03-09T05:33:04.472Z,1000.29
2019-03-09T05:34:04.314Z,1000.31
2019-03-09T05:35:04.349Z,1000.23
2019-03-09T05:36:04.476Z,1000.24
2019-03-09T05:37:04.376Z,1000.22
2019-03-09T05:38:04.248Z,1000.22
2019-03-09T05:39:04.386Z,1000.22
2019-03-09T05:40:04.231Z,1000.22
2019-03-09T05:41:04.681Z,1000.15
2019-03-09T05:42:04.597Z,1000.16
2019-03-09T05:43:04.198Z,1000.13
2019-03-09T05:44:04.696Z,1000.05
2019-03-09T05:45:05.026Z,1000.09
2019-03-09T05:46:04.177Z,1000.09
2019-03-09T05:47:04.169Z,1000.05
2019-03-09T05:48:04.144Z,1000.04
2019-03-09T05:49:04.133Z,999.95
2019-03-09T05:50:04.810Z,1000.05
2019-03-09T05:51:18.760Z,999.93
2019-03-09T05:52:04.203Z,999.91
2019-03-09T05:53:04.870Z,999.86
2019-03-09T05:54:04.081Z,999.83
2019-03-09T05:55:04.063Z,999.86
2019-03-09T05:56:04.651Z,999.94
2019-03-09T05:57:04.078Z,999.88
2019-03-09T05:58:04.049Z,999.84
2019-03-09T05:59:04.974Z,999.90
2019-03-09T06:00:04.014Z,999.85
2019-03-09T06:01:12.943Z,999.89
2019-03-09T06:02:03.999Z,999.86
2019-03-09T06:03:03.980Z,999.91
2019-03-09T06:04:04.188Z,999.82
2019-03-09T06:05:03.959Z,999.88
2019-03-09T06:06:03.940Z,999.79
2019-03-09T06:07:04.171Z,999.79
2019-03-09T06:08:03.946Z,999.78
2019-03-09T06:09:04.057Z,999.84
2019-03-09T06:10:03.964Z,999.80
2019-03-09T06:11:03.990Z,999.71
2019-03-09T06:12:03.881Z,999.69
2019-03-09T06:13:04.244Z,999.60
2019-03-09T06:14:06.100Z,999.69
2019-03-09T06:15:03.855Z,999.71
2019-03-09T06:16:03.845Z,999.85
2019-03-09T06:17:03.830Z,999.76
2019-03-09T06:18:03.993Z,999.64
2019-03-09T06:19:04.042Z,999.66
2019-03-09T06:20:03.820Z,999.64
2019-03-09T06:21:03.849Z,999.66
2019-03-09T06:22:04.179Z,999.59
2019-03-09T06:23:03.762Z,999.59
2019-03-09T06:24:04.204Z,999.51
2019-03-09T06:25:03.739Z,999.45
2019-03-09T06:26:03.885Z,999.47
2019-03-09T06:27:03.734Z,999.55
2019-03-09T06:28:03.743Z,999.48
2019-03-09T06:29:03.700Z,999.56
2019-03-09T06:30:06.855Z,999.46
2019-03-09T06:31:03.676Z,999.45
2019-03-09T06:32:03.874Z,999.51
2019-03-09T06:33:03.669Z,999.60
2019-03-09T06:34:03.652Z,999.45
2019-03-09T06:35:05.728Z,999.51
2019-03-09T06:36:04.060Z,999.30
2019-03-09T06:37:03.604Z,999.37
2019-03-09T06:38:03.602Z,999.37
2019-03-09T06:39:03.607Z,999.35
2019-03-09T06:40:03.618Z,999.34
2019-03-09T06:41:03.990Z,999.36
2019-03-09T06:42:03.555Z,999.41
2019-03-09T06:43:03.691Z,999.25
2019-03-09T06:44:03.549Z,999.21
2019-03-09T06:45:03.553Z,999.13
2019-03-09T06:46:03.520Z,999.21
2019-03-09T06:47:04.067Z,999.17
2019-03-09T06:48:03.486Z,999.31
2019-03-09T06:49:03.475Z,999.15
2019-03-09T06:50:03.475Z,999.17
2019-03-09T06:51:04.101Z,999.36
2019-03-09T06:52:03.460Z,999.22
2019-03-09T06:53:03.651Z,999.18
2019-03-09T06:54:03.636Z,999.25
2019-03-09T06:55:03.411Z,999.26
2019-03-09T06:56:03.499Z,999.22
2019-03-09T06:57:03.410Z,998.98
2019-03-09T06:58:05.766Z,998.92
2019-03-09T06:59:03.552Z,998.84
2019-03-09T07:00:05.964Z,998.96
2019-03-09T07:01:03.364Z,998.92
2019-03-09T07:02:03.493Z,998.88
2019-03-09T07:03:03.332Z,998.96
2019-03-09T07:04:03.741Z,999.06
2019-03-09T07:05:03.594Z,999.08
2019-03-09T07:06:03.301Z,999.00
2019-03-09T07:07:03.305Z,999.04
2019-03-09T07:08:03.270Z,998.91
2019-03-09T07:09:03.651Z,998.83
2019-03-09T07:10:03.258Z,998.90
2019-03-09T07:11:03.729Z,998.87
2019-03-09T07:12:03.226Z,998.91
2019-03-09T07:13:03.428Z,998.93
2019-03-09T07:14:03.206Z,998.86
2019-03-09T07:15:03.476Z,998.99
2019-03-09T07:16:03.634Z,998.91
2019-03-09T07:17:03.504Z,998.96
2019-03-09T07:18:03.179Z,998.91
2019-03-09T07:19:03.590Z,998.80
2019-03-09T07:20:12.218Z,998.84
2019-03-09T07:21:04.480Z,998.78
2019-03-09T07:22:03.117Z,998.67
2019-03-09T07:23:03.105Z,998.71
2019-03-09T07:24:03.182Z,998.73
2019-03-09T07:25:03.170Z,998.63
2019-03-09T07:26:03.225Z,998.65
2019-03-09T07:27:04.939Z,998.68
2019-03-09T07:28:03.615Z,998.62
2019-03-09T07:29:03.055Z,998.76
2019-03-09T07:30:03.154Z,998.70
2019-03-09T07:31:03.017Z,998.65
2019-03-09T07:32:03.724Z,998.64
2019-03-09T07:33:02.992Z,998.68
2019-03-09T07:34:03.444Z,998.66
2019-03-09T07:35:02.986Z,998.69
2019-03-09T07:36:02.970Z,998.75
2019-03-09T07:37:02.952Z,998.63
2019-03-09T07:38:03.635Z,998.78
2019-03-09T07:39:02.931Z,998.55
2019-03-09T07:40:02.929Z,998.40
2019-03-09T07:41:03.806Z,998.51
2019-03-09T07:42:02.897Z,998.60
2019-03-09T07:43:04.984Z,998.66
2019-03-09T07:44:02.878Z,998.65
2019-03-09T07:45:03.073Z,998.71
2019-03-09T07:46:02.852Z,998.54
2019-03-09T07:47:02.869Z,998.54
2019-03-09T07:48:02.833Z,998.53
2019-03-09T07:49:10.200Z,998.63
2019-03-09T07:50:02.811Z,998.44
2019-03-09T07:51:02.825Z,998.39
2019-03-09T07:52:03.001Z,998.49
2019-03-09T07:53:02.778Z,998.44
2019-03-09T07:54:02.770Z,998.50
2019-03-09T07:55:02.780Z,998.54
2019-03-09T07:56:02.943Z,998.65
2019-03-09T07:57:03.321Z,998.60
2019-03-09T07:58:03.608Z,998.56
2019-03-09T07:59:02.721Z,998.61
2019-03-09T08:00:02.934Z,998.51
2019-03-09T08:01:02.696Z,998.64
2019-03-09T08:02:02.683Z,998.57
2019-03-09T08:03:02.672Z,998.64
2019-03-09T08:04:02.733Z,998.60
2019-03-09T08:05:02.651Z,998.85
2019-03-09T08:06:05.979Z,998.52
2019-03-09T08:07:02.977Z,998.50
2019-03-09T08:08:02.649Z,998.64
2019-03-09T08:09:02.611Z,998.72
2019-03-09T08:10:06.396Z,998.76
2019-03-09T08:11:02.595Z,998.74
2019-03-09T08:12:02.575Z,998.75
2019-03-09T08:13:02.562Z,998.75
2019-03-09T08:14:02.551Z,998.65
2019-03-09T08:15:02.535Z,998.74
2019-03-09T08:16:02.613Z,998.80
2019-03-09T08:17:02.513Z,998.80
2019-03-09T08:18:02.553Z,998.95
2019-03-09T08:19:02.494Z,999.00
2019-03-09T08:20:02.484Z,998.99
2019-03-09T08:21:02.522Z,998.91
2019-03-09T08:22:17.285Z,998.87
2019-03-09T08:23:03.525Z,998.87
2019-03-09T08:24:02.442Z,998.81
2019-03-09T08:25:02.462Z,998.79
2019-03-09T08:26:02.426Z,998.92
2019-03-09T08:27:02.430Z,998.94
2019-03-09T08:28:02.538Z,998.98
2019-03-09T08:29:02.713Z,998.96
2019-03-09T08:30:02.753Z,998.89
2019-03-09T08:31:03.525Z,998.95
2019-03-09T08:32:02.356Z,998.98
2019-03-09T08:33:02.586Z,998.96
2019-03-09T08:34:02.340Z,999.02
2019-03-09T08:35:02.320Z,999.08
2019-03-09T08:36:04.203Z,999.02
2019-03-09T08:37:02.293Z,999.02
2019-03-09T08:38:02.364Z,999.05
2019-03-09T08:39:02.676Z,999.09
2019-03-09T08:40:02.273Z,998.90
2019-03-09T08:41:02.252Z,998.98
2019-03-09T08:42:02.245Z,998.96
2019-03-09T08:43:02.243Z,999.02
2019-03-09T08:44:04.022Z,999.14
2019-03-09T08:45:02.225Z,999.21
2019-03-09T08:46:02.256Z,999.34
2019-03-09T08:47:02.187Z,999.36
2019-03-09T08:48:02.186Z,999.36
2019-03-09T08:49:02.739Z,999.46
2019-03-09T08:50:02.402Z,999.43
2019-03-09T08:51:02.150Z,999.32
2019-03-09T08:52:02.803Z,999.36
2019-03-09T08:53:02.893Z,999.29
2019-03-09T08:54:02.153Z,999.13
2019-03-09T08:55:02.570Z,999.19
2019-03-09T08:56:02.100Z,999.12
2019-03-09T08:57:02.084Z,999.18
2019-03-09T08:58:02.078Z,999.32
2019-03-09T08:59:03.646Z,999.29
2019-03-09T09:00:04.276Z,999.33
2019-03-09T09:01:02.139Z,999.25
2019-03-09T09:02:03.186Z,999.34
2019-03-09T09:03:02.015Z,999.57
2019-03-09T09:04:02.038Z,999.32
2019-03-09T09:05:02.139Z,999.46
2019-03-09T09:06:01.979Z,999.63
2019-03-09T09:07:01.972Z,999.56
2019-03-09T09:08:03.900Z,999.45
2019-03-09T09:09:01.952Z,999.40
2019-03-09T09:10:04.090Z,999.33
2019-03-09T09:11:02.119Z,999.35
2019-03-09T09:12:02.023Z,999.26
2019-03-09T09:13:01.903Z,999.26
2019-03-09T09:14:02.046Z,999.45
2019-03-09T09:15:01.884Z,999.25
2019-03-09T09:16:02.178Z,999.27
2019-03-09T09:17:03.450Z,999.27
2019-03-09T09:18:01.869Z,999.27
2019-03-09T09:19:02.086Z,999.29
2019-03-09T09:20:01.912Z,999.33
2019-03-09T09:21:02.796Z,999.44
2019-03-09T09:22:06.668Z,999.38
2019-03-09T09:23:01.924Z,999.33
2019-03-09T09:24:01.862Z,999.39
2019-03-09T09:25:02.111Z,999.38
2019-03-09T09:26:01.818Z,999.33
2019-03-09T09:27:02.275Z,999.30
2019-03-09T09:28:02.097Z,999.38
2019-03-09T09:29:02.313Z,999.47
2019-03-09T09:30:02.162Z,999.49
2019-03-09T09:31:02.581Z,999.59
2019-03-09T09:32:03.263Z,999.64
2019-03-09T09:33:02.172Z,999.19
2019-03-09T09:34:01.870Z,999.16
2019-03-09T09:35:02.262Z,999.62
2019-03-09T09:36:02.553Z,999.29
2019-03-09T09:37:01.640Z,999.19
2019-03-09T09:38:02.299Z,999.23
2019-03-09T09:39:02.115Z,999.21
2019-03-09T09:40:05.575Z,999.37
2019-03-09T09:41:11.323Z,999.36
2019-03-09T09:42:01.582Z,999.28
2019-03-09T09:43:01.644Z,999.16
2019-03-09T09:44:01.648Z,999.23
2019-03-09T09:45:02.199Z,999.39
2019-03-09T09:46:01.848Z,999.63
2019-03-09T09:47:01.674Z,999.76
2019-03-09T09:48:01.759Z,999.81
2019-03-09T09:49:01.564Z,999.38
2019-03-09T09:50:04.313Z,999.86
2019-03-09T09:51:01.564Z,999.80
2019-03-09T09:52:01.664Z,999.77
2019-03-09T09:53:01.718Z,999.76
2019-03-09T09:54:02.419Z,999.94
2019-03-09T09:55:01.485Z,999.82
2019-03-09T09:56:01.634Z,999.88
2019-03-09T09:57:02.203Z,999.90
2019-03-09T09:58:03.908Z,999.86
2019-03-09T09:59:01.425Z,999.84
2019-03-09T10:00:01.417Z,999.83
2019-03-09T10:01:01.620Z,999.80
2019-03-09T10:02:01.575Z,999.71
2019-03-09T10:03:02.380Z,999.80
2019-03-09T10:04:01.829Z,999.68
2019-03-09T10:05:01.438Z,999.78
2019-03-09T10:06:01.566Z,999.61
2019-03-09T10:07:01.319Z,999.75
2019-03-09T10:08:01.617Z,999.77
2019-03-09T10:09:02.279Z,999.76
2019-03-09T10:10:01.519Z,999.79
2019-03-09T10:11:02.487Z,999.74
2019-03-09T10:12:02.411Z,999.41
2019-03-09T10:13:01.400Z,999.43
2019-03-09T10:14:03.974Z,999.79
2019-03-09T10:15:01.462Z,999.31
2019-03-09T10:16:01.627Z,999.39
2019-03-09T10:17:01.501Z,999.50
2019-03-09T10:18:01.567Z,999.58
2019-03-09T10:19:02.494Z,999.59
2019-03-09T10:20:01.750Z,999.43
2019-03-09T10:21:01.995Z,999.66
2019-03-09T10:22:02.158Z,999.60
2019-03-09T10:23:04.623Z,999.70
2019-03-09T10:24:02.777Z,999.61
2019-03-09T10:25:02.194Z,999.64
2019-03-09T10:26:01.727Z,999.68
2019-03-09T10:27:01.523Z,999.94
2019-03-09T10:28:04.950Z,1000.01
2019-03-09T10:29:02.456Z,999.79
2019-03-09T10:30:02.355Z,1000.09
2019-03-09T10:31:01.696Z,1000.24
2019-03-09T10:32:01.523Z,1000.28
2019-03-09T10:33:01.743Z,999.66
2019-03-09T10:34:01.984Z,999.83
2019-03-09T10:35:01.895Z,999.78
2019-03-09T10:36:02.382Z,999.76
2019-03-09T10:37:01.538Z,999.89
2019-03-09T10:38:01.580Z,999.87
2019-03-09T10:39:01.345Z,999.85
2019-03-09T10:40:03.992Z,999.97
2019-03-09T10:41:02.080Z,1000.01
2019-03-09T10:42:01.534Z,1000.02
2019-03-09T10:43:01.781Z,999.94
2019-03-09T10:44:04.926Z,1000.05
2019-03-09T10:45:03.655Z,1000.11
2019-03-09T10:46:01.489Z,1000.13
2019-03-09T10:47:01.197Z,1000.06
2019-03-09T10:48:01.525Z,1000.34
2019-03-09T10:49:01.122Z,1000.15
2019-03-09T10:50:02.344Z,1000.30
2019-03-09T10:51:01.817Z,1000.32
2019-03-09T10:52:02.115Z,1000.60
2019-03-09T10:53:01.795Z,1000.28
2019-03-09T10:54:07.299Z,1000.28
2019-03-09T10:55:01.176Z,1000.11
2019-03-09T10:56:01.350Z,1000.26
2019-03-09T10:57:03.437Z,1000.20
2019-03-09T10:58:02.968Z,1000.20
2019-03-09T10:59:01.474Z,1000.22
2019-03-09T11:00:06.430Z,1000.27
2019-03-09T11:01:02.188Z,1000.22
2019-03-09T11:02:01.128Z,1000.22
2019-03-09T11:03:01.560Z,1000.19
2019-03-09T11:04:01.474Z,1000.21
2019-03-09T11:05:01.767Z,1000.22
2019-03-09T11:06:02.348Z,1000.27
2019-03-09T11:07:01.356Z,1000.26
2019-03-09T11:08:01.905Z,1000.32
2019-03-09T11:09:01.798Z,1000.34
2019-03-09T11:10:01.209Z,1000.25
2019-03-09T11:11:02.223Z,1000.25
2019-03-09T11:12:01.244Z,1000.24
2019-03-09T11:13:01.667Z,1000.16
2019-03-09T11:14:01.376Z,1000.28
2019-03-09T11:15:01.527Z,1000.34
2019-03-09T11:16:03.235Z,1000.29
2019-03-09T11:17:01.383Z,1000.24
2019-03-09T11:18:01.367Z,1000.35
2019-03-09T11:19:02.071Z,1000.22
2019-03-09T11:20:01.282Z,1000.26
2019-03-09T11:21:01.732Z,1000.25
2019-03-09T11:22:02.608Z,1000.28
2019-03-09T11:23:01.662Z,1000.22
2019-03-09T11:24:01.672Z,1000.24
2019-03-09T11:25:03.678Z,1000.26
2019-03-09T11:26:01.641Z,1000.22
2019-03-09T11:27:01.835Z,1000.21
2019-03-09T11:28:03.122Z,1000.17
2019-03-09T11:29:01.533Z,1000.28
2019-03-09T11:30:06.294Z,1000.29
2019-03-09T11:31:02.640Z,1000.29
2019-03-09T11:32:01.342Z,1000.29
2019-03-09T11:33:01.388Z,1000.31
2019-03-09T11:34:03.038Z,1000.30
2019-03-09T11:35:01.668Z,1000.30
2019-03-09T11:36:01.229Z,1000.29
2019-03-09T11:37:01.932Z,1000.30
2019-03-09T11:38:01.366Z,1000.65
2019-03-09T11:39:01.577Z,1000.43
2019-03-09T11:40:02.123Z,1000.43
2019-03-09T11:41:01.152Z,1000.36
2019-03-09T11:42:00.698Z,999.84
2019-03-09T11:43:01.167Z,999.86
2019-03-09T11:44:00.662Z,999.90
2019-03-09T11:45:05.749Z,999.89
2019-03-09T11:46:00.217Z,1000.07
2019-03-09T11:47:00.200Z,1000.01
2019-03-09T11:48:00.193Z,1000.07
2019-03-09T11:49:00.189Z,1000.04
2019-03-09T11:50:02.265Z,1000.12
2019-03-09T11:51:02.809Z,1000.16
2019-03-09T11:52:00.154Z,1000.26
2019-03-09T11:53:00.135Z,1000.20
2019-03-09T11:54:00.130Z,1000.17
2019-03-09T11:55:00.177Z,1000.07
2019-03-09T11:56:02.205Z,1000.10
2019-03-09T11:57:01.143Z,1000.45
2019-03-09T11:58:00.084Z,1000.26
2019-03-09T11:59:00.120Z,1000.17
2019-03-09T12:00:00.061Z,999.97
2019-03-09T12:01:00.758Z,1000.04
2019-03-09T12:02:01.295Z,999.85
2019-03-09T12:03:01.189Z,999.99
2019-03-09T12:04:00.012Z,999.95
2019-03-09T12:05:00.014Z,1000.03
2019-03-09T12:05:59.995Z,999.91
2019-03-09T12:06:59.984Z,999.95
2019-03-09T12:07:59.990Z,999.95
2019-03-09T12:09:02.888Z,999.89
2019-03-09T12:09:59.955Z,999.89
2019-03-09T12:11:01.278Z,999.95
2019-03-09T12:11:59.956Z,999.89
2019-03-09T12:13:00.056Z,1000.13
2019-03-09T12:14:00.049Z,1000.29
2019-03-09T12:14:59.923Z,1000.23
2019-03-09T12:15:59.899Z,999.94
2019-03-09T12:16:59.872Z,999.99